Time,TemperatureF,DewpointF,PressureIn,WindDirection,WindDirectionDegrees,WindSpeedMPH,WindSpeedGustMPH,Humidity,HourlyPrecipIn,Conditions,Clouds,dailyrainin,SoftwareType,DateUTC
2013-03-05 00:00:00,29.7,15.1,29.87,NNE,12,2.7,8.1,54,0.00,,OVC033,0.00,VWS V13.00,2013-03-05 05:00:00,
2013-03-05 00:05:00,29.5,14.9,29.87,West,265,2.7,5.8,54,0.00,,OVC033,0.00,VWS V13.00,2013-03-05 05:05:00,
2013-03-05 00:10:00,29.5,14.9,29.87,SE,135,0.0,5.8,54,0.00,,OVC033,0.00,VWS V13.00,2013-03-05 05:10:00,
2013-03-05 00:15:00,29.7,15.5,29.87,SSE,150,0.0,5.8,55,0.00,,OVC033,0.00,VWS V13.00,2013-03-05 05:15:00,
2013-03-05 00:21:00,29.7,15.5,29.87,ENE,72,0.0,3.1,55,0.00,,OVC033,0.00,VWS V13.00,2013-03-05 05:21:00,
2013-03-05 00:26:00,29.7,15.5,29.87,NNE,12,2.7,5.8,55,0.00,,OVC033,0.00,VWS V13.00,2013-03-05 05:26:00,
2013-03-05 00:31:00,29.7,15.5,29.87,East,97,2.7,5.8,55,0.00,,OVC033,0.00,VWS V13.00,2013-03-05 05:31:00,
2013-03-05 00:36:00,29.7,15.5,29.87,NE,36,3.6,5.8,55,0.00,,OVC031,0.00,VWS V13.00,2013-03-05 05:36:00,
2013-03-05 00:41:00,29.7,15.5,29.87,NW,325,2.7,3.1,55,0.00,,OVC031,0.00,VWS V13.00,2013-03-05 05:41:00,
2013-03-05 00:46:00,29.7,15.5,29.87,NNW,345,3.1,7.6,55,0.00,,OVC031,0.00,VWS V13.00,2013-03-05 05:46:00,
2013-03-05 00:51:00,29.7,15.5,29.87,SSE,158,2.7,7.6,55,0.00,,OVC031,0.00,VWS V13.00,2013-03-05 05:51:00,
2013-03-05 00:56:00,29.7,15.5,29.87,South,191,2.7,7.6,55,0.00,,OVC031,0.00,VWS V13.00,2013-03-05 05:56:00,
2013-03-05 01:01:00,29.7,15.5,29.87,SSE,163,2.7,3.1,55,0.00,,OVC031,0.00,VWS V13.00,2013-03-05 06:01:00,
2013-03-05 01:06:00,29.7,15.5,29.90,East,98,3.6,7.2,55,0.00,,OVC031,0.00,VWS V13.00,2013-03-05 06:06:00,
2013-03-05 01:11:00,29.7,15.5,29.90,NW,313,3.1,7.2,55,0.00,,OVC031,0.00,VWS V13.00,2013-03-05 06:11:00,
2013-03-05 01:16:00,29.7,15.5,29.90,NNW,338,3.1,7.2,55,0.00,,OVC031,0.00,VWS V13.00,2013-03-05 06:16:00,
2013-03-05 01:21:00,29.7,15.5,29.87,South,172,4.5,4.5,55,0.00,,OVC031,0.00,VWS V13.00,2013-03-05 06:21:00,
2013-03-05 01:26:00,29.7,15.5,29.87,WSW,254,3.6,4.5,55,0.00,,OVC031,0.00,VWS V13.00,2013-03-05 06:26:00,
2013-03-05 01:31:00,29.7,15.5,29.87,NNW,328,2.2,6.3,55,0.00,,OVC031,0.00,VWS V13.00,2013-03-05 06:31:00,
2013-03-05 01:36:00,29.7,15.5,29.87,ENE,65,3.6,6.3,55,0.00,,OVC031,0.00,VWS V13.00,2013-03-05 06:36:00,
2013-03-05 01:41:00,29.7,15.5,29.87,NE,47,2.7,3.6,55,0.00,,OVC031,0.00,VWS V13.00,2013-03-05 06:41:00,
2013-03-05 01:46:00,29.5,15.3,29.87,ENE,72,0.0,3.6,55,0.00,,OVC031,0.00,VWS V13.00,2013-03-05 06:46:00,
2013-03-05 01:51:00,29.5,15.3,29.87,NNE,26,2.7,5.8,55,0.00,,OVC031,0.00,VWS V13.00,2013-03-05 06:51:00,
2013-03-05 01:56:00,29.5,15.3,29.87,ENE,76,3.1,6.3,55,0.00,,OVC031,0.00,VWS V13.00,2013-03-05 06:56:00,
2013-03-05 02:02:00,29.5,15.7,29.87,ESE,118,2.2,3.6,56,0.00,,OVC031,0.00,VWS V13.00,2013-03-05 07:02:00,
2013-03-05 02:06:00,29.3,15.6,29.87,North,357,2.7,7.6,56,0.00,,OVC031,0.00,VWS V13.00,2013-03-05 07:06:00,
2013-03-05 02:12:00,29.3,15.6,29.87,NNE,22,3.1,7.6,56,0.00,,OVC031,0.00,VWS V13.00,2013-03-05 07:12:00,
2013-03-05 02:17:00,29.1,15.4,29.87,NW,311,2.7,8.7,56,0.00,,OVC031,0.00,VWS V13.00,2013-03-05 07:17:00,
2013-03-05 02:22:00,28.9,15.2,29.87,NW,307,4.9,4.9,56,0.00,,OVC031,0.00,VWS V13.00,2013-03-05 07:22:00,
2013-03-05 02:27:00,28.8,15.1,29.87,ESE,110,3.1,4.9,56,0.00,,OVC031,0.00,VWS V13.00,2013-03-05 07:27:00,
2013-03-05 02:32:00,28.6,14.9,29.87,SE,136,3.6,4.9,56,0.00,,OVC031,0.00,VWS V13.00,2013-03-05 07:32:00,
2013-03-05 02:37:00,28.8,15.1,29.87,SE,128,7.6,7.6,56,0.00,,OVC031,0.00,VWS V13.00,2013-03-05 07:37:00,
2013-03-05 02:42:00,28.8,15.5,29.87,SE,132,4.0,6.3,57,0.00,,OVC031,0.00,VWS V13.00,2013-03-05 07:42:00,
2013-03-05 02:47:00,28.8,15.5,29.87,ENE,61,3.6,8.3,57,0.00,,OVC031,0.00,VWS V13.00,2013-03-05 07:47:00,
2013-03-05 02:52:00,28.8,15.5,29.87,NE,42,3.1,8.3,57,0.00,,OVC031,0.00,VWS V13.00,2013-03-05 07:52:00,
2013-03-05 02:57:00,28.8,15.5,29.87,NNE,19,0.0,8.3,57,0.00,,OVC031,0.00,VWS V13.00,2013-03-05 07:57:00,
2013-03-05 03:02:00,28.8,15.5,29.87,ESE,111,2.7,4.5,57,0.00,,OVC031,0.00,VWS V13.00,2013-03-05 08:02:00,
2013-03-05 03:07:00,28.9,15.6,29.87,North,6,3.6,7.6,57,0.00,,OVC031,0.00,VWS V13.00,2013-03-05 08:07:00,
2013-03-05 03:12:00,28.9,15.6,29.87,SSE,163,4.9,7.6,57,0.00,,OVC031,0.00,VWS V13.00,2013-03-05 08:12:00,
2013-03-05 03:17:00,28.9,16.0,29.87,SSE,161,0.0,7.6,58,0.00,,BKN080,0.00,VWS V13.00,2013-03-05 08:17:00,
2013-03-05 03:22:00,28.8,15.9,29.87,WSW,237,3.1,5.4,58,0.00,,BKN080,0.00,VWS V13.00,2013-03-05 08:22:00,
2013-03-05 03:27:00,28.6,15.7,29.87,WSW,247,3.1,5.4,58,0.00,,BKN080,0.00,VWS V13.00,2013-03-05 08:27:00,
2013-03-05 03:32:00,28.4,15.5,29.87,East,83,3.1,5.4,58,0.00,,SCT029,0.00,VWS V13.00,2013-03-05 08:32:00,
2013-03-05 03:37:00,28.2,15.4,29.87,SSW,210,4.9,5.8,58,0.00,,SCT029,0.00,VWS V13.00,2013-03-05 08:37:00,
2013-03-05 03:42:00,28.2,15.8,29.87,North,5,3.1,3.6,59,0.00,,SCT029,0.00,VWS V13.00,2013-03-05 08:42:00,
2013-03-05 03:47:00,27.9,15.4,29.87,NNW,346,0.0,5.8,59,0.00,,SCT029,0.00,VWS V13.00,2013-03-05 08:47:00,
2013-03-05 03:52:00,27.7,15.2,29.87,SE,136,3.6,5.8,59,0.00,,SCT029,0.00,VWS V13.00,2013-03-05 08:52:00,
2013-03-05 03:57:00,27.9,15.4,29.87,West,266,4.9,5.8,59,0.00,,SCT029,0.00,VWS V13.00,2013-03-05 08:57:00,
2013-03-05 04:02:00,27.7,15.2,29.87,SSW,209,3.6,6.3,59,0.00,,SCT029,0.00,VWS V13.00,2013-03-05 09:02:00,
2013-03-05 04:07:00,27.7,15.2,29.87,East,99,4.0,8.1,59,0.00,,SCT029,0.00,VWS V13.00,2013-03-05 09:07:00,
2013-03-05 04:12:00,27.7,15.2,29.87,ENE,68,5.4,8.1,59,0.00,,SCT029,0.00,VWS V13.00,2013-03-05 09:12:00,
2013-03-05 04:17:00,27.7,15.2,29.87,East,89,5.8,8.1,59,0.00,,SCT029,0.00,VWS V13.00,2013-03-05 09:17:00,
2013-03-05 04:22:00,27.7,15.6,29.90,East,83,3.6,7.2,60,0.00,,SCT029,0.00,VWS V13.00,2013-03-05 09:22:00,
2013-03-05 04:27:00,27.3,15.3,29.90,SSE,149,2.2,7.2,60,0.00,,SCT029,0.00,VWS V13.00,2013-03-05 09:27:00,
2013-03-05 04:33:00,27.1,15.1,29.90,SW,216,4.0,7.2,60,0.00,,BKN027,0.00,VWS V13.00,2013-03-05 09:33:00,
2013-03-05 04:38:00,27.1,15.1,29.90,WSW,244,2.7,7.2,60,0.00,,BKN027,0.00,VWS V13.00,2013-03-05 09:38:00,
2013-03-05 04:43:00,27.1,15.1,29.90,East,89,3.1,4.0,60,0.00,,BKN027,0.00,VWS V13.00,2013-03-05 09:43:00,
2013-03-05 04:48:00,27.0,14.9,29.90,SSE,158,3.1,5.8,60,0.00,,BKN027,0.00,VWS V13.00,2013-03-05 09:48:00,
2013-03-05 04:53:00,27.1,15.5,29.90,ESE,119,6.3,6.3,61,0.00,,SCT027,0.00,VWS V13.00,2013-03-05 09:53:00,
2013-03-05 04:58:00,27.1,15.5,29.90,NNE,19,2.2,6.3,61,0.00,,SCT027,0.00,VWS V13.00,2013-03-05 09:58:00,
2013-03-05 05:03:00,27.1,15.5,29.90,NNW,343,0.0,4.0,61,0.00,,SCT027,0.00,VWS V13.00,2013-03-05 10:03:00,
2013-03-05 05:08:00,27.0,15.3,29.90,ESE,116,4.0,4.0,61,0.00,,BKN027,0.00,VWS V13.00,2013-03-05 10:08:00,
2013-03-05 05:13:00,27.1,15.9,29.90,NE,42,3.6,4.0,62,0.00,,SCT027,0.00,VWS V13.00,2013-03-05 10:13:00,
2013-03-05 05:18:00,27.3,16.0,29.90,ESE,102,4.0,5.4,62,0.00,,SCT027,0.00,VWS V13.00,2013-03-05 10:18:00,
2013-03-05 05:23:00,27.0,15.7,29.90,SSW,193,4.0,4.0,62,0.00,,SCT027,0.00,VWS V13.00,2013-03-05 10:23:00,
2013-03-05 05:28:00,27.0,15.7,29.90,South,171,2.7,5.8,62,0.00,,SCT027,0.00,VWS V13.00,2013-03-05 10:28:00,
2013-03-05 05:33:00,27.0,15.7,29.90,West,259,5.4,5.8,62,0.00,,FEW027,0.00,VWS V13.00,2013-03-05 10:33:00,
2013-03-05 05:38:00,27.1,16.2,29.90,NNE,17,2.2,6.3,63,0.00,,FEW027,0.00,VWS V13.00,2013-03-05 10:38:00,
2013-03-05 05:43:00,27.1,15.9,29.90,ENE,78,2.7,3.1,62,0.00,,FEW027,0.00,VWS V13.00,2013-03-05 10:43:00,
2013-03-05 05:48:00,27.0,15.7,29.93,NE,38,2.7,6.3,62,0.00,,FEW027,0.00,VWS V13.00,2013-03-05 10:48:00,
2013-03-05 05:53:00,27.0,15.7,29.93,ENE,65,2.7,6.3,62,0.00,,FEW027,0.00,VWS V13.00,2013-03-05 10:53:00,
2013-03-05 05:58:00,26.8,15.9,29.93,NNW,328,3.1,6.3,63,0.00,,FEW027,0.00,VWS V13.00,2013-03-05 10:58:00,
2013-03-05 06:03:00,26.8,15.9,29.93,WNW,298,2.2,3.6,63,0.00,,FEW027,0.00,VWS V13.00,2013-03-05 11:03:00,
2013-03-05 06:08:00,26.8,15.9,29.93,North,0,3.6,5.4,63,0.00,,FEW027,0.00,VWS V13.00,2013-03-05 11:08:00,
2013-03-05 06:13:00,27.0,16.1,29.93,NE,40,2.7,5.4,63,0.00,,FEW027,0.00,VWS V13.00,2013-03-05 11:13:00,
2013-03-05 06:18:00,26.8,15.9,29.93,WSW,251,0.0,5.4,63,0.00,,FEW027,0.00,VWS V13.00,2013-03-05 11:18:00,
2013-03-05 06:23:00,27.0,16.4,29.93,ENE,65,3.1,6.7,64,0.00,,FEW027,0.00,VWS V13.00,2013-03-05 11:23:00,
2013-03-05 06:28:00,27.1,16.6,29.93,East,86,2.7,6.7,64,0.00,,FEW027,0.00,VWS V13.00,2013-03-05 11:28:00,
2013-03-05 06:33:00,27.0,16.1,29.93,SSE,164,0.0,6.7,63,0.00,,CLR,0.00,VWS V13.00,2013-03-05 11:33:00,
2013-03-05 06:39:00,27.0,16.4,29.93,South,176,2.7,6.7,64,0.00,,CLR,0.00,VWS V13.00,2013-03-05 11:39:00,
2013-03-05 06:44:00,27.0,16.4,29.93,South,191,0.0,5.8,64,0.00,,CLR,0.00,VWS V13.00,2013-03-05 11:44:00,
2013-03-05 06:49:00,27.1,16.2,29.93,SE,131,3.1,5.8,63,0.00,,CLR,0.00,VWS V13.00,2013-03-05 11:49:00,
2013-03-05 06:54:00,27.1,16.2,29.93,ESE,118,3.6,5.8,63,0.00,,CLR,0.00,VWS V13.00,2013-03-05 11:54:00,
2013-03-05 06:59:00,27.7,16.7,29.93,NNW,330,3.6,5.8,63,0.00,,CLR,0.00,VWS V13.00,2013-03-05 11:59:00,
2013-03-05 07:04:00,27.9,16.9,29.93,ENE,59,0.0,8.1,63,0.00,,CLR,0.00,VWS V13.00,2013-03-05 12:04:00,
2013-03-05 07:09:00,28.2,16.9,29.93,South,190,4.0,8.1,62,0.00,,CLR,0.00,VWS V13.00,2013-03-05 12:09:00,
2013-03-05 07:14:00,28.4,17.1,29.93,SSW,208,2.2,8.1,62,0.00,,CLR,0.00,VWS V13.00,2013-03-05 12:14:00,
2013-03-05 07:19:00,28.6,16.9,29.93,NE,53,3.6,8.1,61,0.00,,CLR,0.00,VWS V13.00,2013-03-05 12:19:00,
2013-03-05 07:24:00,29.1,17.0,29.93,SSE,162,3.6,4.5,60,0.00,,CLR,0.00,VWS V13.00,2013-03-05 12:24:00,
2013-03-05 07:29:00,29.7,17.5,29.93,ENE,65,2.2,5.4,60,0.00,,CLR,0.00,VWS V13.00,2013-03-05 12:29:00,
2013-03-05 07:34:00,30.2,17.6,29.93,WNW,288,0.0,5.4,59,0.00,,CLR,0.00,VWS V13.00,2013-03-05 12:34:00,
2013-03-05 07:39:00,30.4,17.4,29.93,ENE,62,0.0,5.4,58,0.00,,CLR,0.00,VWS V13.00,2013-03-05 12:39:00,
2013-03-05 07:44:00,30.6,17.1,29.93,NNW,346,3.6,3.6,57,0.00,,CLR,0.00,VWS V13.00,2013-03-05 12:44:00,
2013-03-05 07:49:00,30.6,16.7,29.96,ENE,74,3.1,5.4,56,0.00,,CLR,0.00,VWS V13.00,2013-03-05 12:49:00,
2013-03-05 07:54:00,30.9,17.1,29.96,SW,235,2.7,6.3,56,0.00,,CLR,0.00,VWS V13.00,2013-03-05 12:54:00,
2013-03-05 07:59:00,31.1,16.8,29.96,SSE,151,4.0,6.3,55,0.00,,CLR,0.00,VWS V13.00,2013-03-05 12:59:00,
2013-03-05 08:04:00,31.5,17.2,29.96,NE,51,4.9,5.8,55,0.00,,CLR,0.00,VWS V13.00,2013-03-05 13:04:00,
2013-03-05 08:09:00,31.5,16.8,29.96,NE,39,3.1,6.3,54,0.00,,CLR,0.00,VWS V13.00,2013-03-05 13:09:00,
2013-03-05 08:15:00,31.6,16.9,29.96,ENE,78,2.7,6.3,54,0.00,,CLR,0.00,VWS V13.00,2013-03-05 13:15:00,
2013-03-05 08:20:00,32.0,16.8,29.96,North,357,2.2,6.3,53,0.00,,CLR,0.00,VWS V13.00,2013-03-05 13:20:00,
2013-03-05 08:25:00,32.4,17.1,29.96,NE,34,4.0,6.3,53,0.00,,CLR,0.00,VWS V13.00,2013-03-05 13:25:00,
2013-03-05 08:30:00,32.9,17.7,29.96,ENE,78,3.1,6.3,53,0.00,,CLR,0.00,VWS V13.00,2013-03-05 13:30:00,
2013-03-05 08:35:00,32.9,17.7,29.96,NNE,25,2.7,6.3,53,0.00,,CLR,0.00,VWS V13.00,2013-03-05 13:35:00,
2013-03-05 08:40:00,33.8,18.0,29.96,NE,38,3.1,6.3,52,0.00,,CLR,0.00,VWS V13.00,2013-03-05 13:40:00,
2013-03-05 08:45:00,34.0,18.2,29.96,East,80,3.1,6.3,52,0.00,,CLR,0.00,VWS V13.00,2013-03-05 13:45:00,
2013-03-05 08:50:00,34.2,17.9,29.96,North,10,2.7,6.3,51,0.00,,CLR,0.00,VWS V13.00,2013-03-05 13:50:00,
2013-03-05 08:55:00,34.5,18.3,29.96,ESE,113,0.0,6.3,51,0.00,,CLR,0.00,VWS V13.00,2013-03-05 13:55:00,
2013-03-05 09:00:00,34.9,18.6,29.96,NNE,32,3.1,6.7,51,0.00,,CLR,0.00,VWS V13.00,2013-03-05 14:00:00,
2013-03-05 09:05:00,35.2,18.9,29.96,SE,140,6.7,6.7,51,0.00,,CLR,0.00,VWS V13.00,2013-03-05 14:05:00,
2013-03-05 09:10:00,35.2,18.5,29.96,ESE,103,4.0,8.1,50,0.00,,CLR,0.00,VWS V13.00,2013-03-05 14:10:00,
2013-03-05 09:15:00,35.6,18.8,29.96,ENE,75,5.4,8.1,50,0.00,,CLR,0.00,VWS V13.00,2013-03-05 14:15:00,
2013-03-05 09:20:00,35.4,18.6,29.96,ENE,60,4.0,8.1,50,0.00,,CLR,0.00,VWS V13.00,2013-03-05 14:20:00,
2013-03-05 09:25:00,36.1,18.8,29.96,NNE,24,4.0,5.8,49,0.00,,CLR,0.00,VWS V13.00,2013-03-05 14:25:00,
2013-03-05 09:30:00,36.1,18.8,29.96,NNE,18,4.0,8.1,49,0.00,,CLR,0.00,VWS V13.00,2013-03-05 14:30:00,
2013-03-05 09:35:00,36.7,19.3,29.96,NNW,339,2.7,8.1,49,0.00,,CLR,0.00,VWS V13.00,2013-03-05 14:35:00,
2013-03-05 09:40:00,37.2,19.4,29.96,North,0,3.1,3.1,48,0.00,,CLR,0.00,VWS V13.00,2013-03-05 14:40:00,
2013-03-05 09:45:00,37.9,20.0,29.96,North,0,3.1,5.4,48,0.00,,CLR,0.00,VWS V13.00,2013-03-05 14:45:00,
2013-03-05 09:50:00,38.3,19.9,29.96,NW,306,2.2,5.4,47,0.00,,CLR,0.00,VWS V13.00,2013-03-05 14:50:00,
2013-03-05 09:55:00,38.5,20.0,29.96,North,357,3.1,5.4,47,0.00,,CLR,0.00,VWS V13.00,2013-03-05 14:55:00,
2013-03-05 10:00:00,37.9,19.0,29.96,NE,42,5.8,5.8,46,0.00,,CLR,0.00,VWS V13.00,2013-03-05 15:00:00,
2013-03-05 10:06:00,37.6,18.7,29.96,ENE,76,4.9,6.3,46,0.00,,CLR,0.00,VWS V13.00,2013-03-05 15:06:00,
2013-03-05 10:11:00,38.5,19.5,29.96,NNW,344,0.0,6.3,46,0.00,,CLR,0.00,VWS V13.00,2013-03-05 15:11:00,
2013-03-05 10:16:00,38.7,19.7,29.96,ENE,72,4.0,8.1,46,0.00,,CLR,0.00,VWS V13.00,2013-03-05 15:16:00,
2013-03-05 10:21:00,38.5,19.5,29.96,ENE,57,4.0,4.0,46,0.00,,CLR,0.00,VWS V13.00,2013-03-05 15:21:00,
2013-03-05 10:26:00,39.2,20.2,29.96,SE,146,2.2,4.0,46,0.00,,CLR,0.00,VWS V13.00,2013-03-05 15:26:00,
2013-03-05 10:31:00,39.0,19.5,29.96,ENE,68,3.1,4.0,45,0.00,,CLR,0.00,VWS V13.00,2013-03-05 15:31:00,
2013-03-05 10:36:00,39.4,19.8,29.96,East,89,4.0,5.4,45,0.00,,CLR,0.00,VWS V13.00,2013-03-05 15:36:00,
2013-03-05 10:41:00,39.2,19.7,29.96,NNW,327,3.6,4.9,45,0.00,,CLR,0.00,VWS V13.00,2013-03-05 15:41:00,
2013-03-05 10:46:00,39.7,19.6,29.96,East,79,3.6,4.9,44,0.00,,CLR,0.00,VWS V13.00,2013-03-05 15:46:00,
2013-03-05 10:51:00,39.4,19.3,29.96,NE,47,2.7,5.4,44,0.00,,CLR,0.00,VWS V13.00,2013-03-05 15:51:00,
2013-03-05 10:56:00,39.7,19.6,29.96,NNE,33,3.6,5.4,44,0.00,,CLR,0.00,VWS V13.00,2013-03-05 15:56:00,
2013-03-05 11:01:00,39.9,19.8,29.96,ENE,70,3.6,4.0,44,0.00,,CLR,0.00,VWS V13.00,2013-03-05 16:01:00,
2013-03-05 11:06:00,40.5,20.3,29.96,ENE,75,2.7,4.0,44,0.00,,CLR,0.00,VWS V13.00,2013-03-05 16:06:00,
2013-03-05 11:11:00,40.6,20.5,29.96,East,83,4.0,5.8,44,0.00,,CLR,0.00,VWS V13.00,2013-03-05 16:11:00,
2013-03-05 11:16:00,41.0,20.2,29.96,ENE,74,2.7,5.8,43,0.00,,CLR,0.00,VWS V13.00,2013-03-05 16:16:00,
2013-03-05 11:21:00,42.4,21.5,29.93,NNE,21,3.1,3.1,43,0.00,,CLR,0.00,VWS V13.00,2013-03-05 16:21:00,
2013-03-05 11:26:00,42.4,21.5,29.93,NE,43,4.0,5.4,43,0.00,,CLR,0.00,VWS V13.00,2013-03-05 16:26:00,
2013-03-05 11:31:00,42.8,21.3,29.93,WNW,298,2.7,5.4,42,0.00,,CLR,0.00,VWS V13.00,2013-03-05 16:31:00,
2013-03-05 11:36:00,43.0,21.5,29.93,ENE,74,4.0,6.3,42,0.00,,-RA,0.00,VWS V13.00,2013-03-05 16:36:00,
2013-03-05 11:41:00,42.6,21.1,29.93,North,0,3.6,4.9,42,0.00,,-RA,0.00,VWS V13.00,2013-03-05 16:41:00,
2013-03-05 11:46:00,43.3,21.8,29.93,NNE,25,5.4,5.4,42,0.00,,-RA,0.00,VWS V13.00,2013-03-05 16:46:00,
2013-03-05 11:51:00,43.7,21.6,29.93,SE,140,3.1,5.4,41,0.00,,-RA,0.00,VWS V13.00,2013-03-05 16:51:00,
2013-03-05 11:56:00,43.7,21.6,29.93,ESE,113,2.7,5.4,41,0.00,,-RA,0.00,VWS V13.00,2013-03-05 16:56:00,
2013-03-05 12:01:00,44.6,22.4,29.93,NNE,31,3.1,3.6,41,0.00,,-RA,0.00,VWS V13.00,2013-03-05 17:01:00,
2013-03-05 12:06:00,43.9,21.7,29.93,NE,45,4.0,6.3,41,0.00,,-RA,0.00,VWS V13.00,2013-03-05 17:06:00,
2013-03-05 12:11:00,43.7,21.6,29.93,ENE,68,4.0,6.3,41,0.00,,-RA,0.00,VWS V13.00,2013-03-05 17:11:00,
2013-03-05 12:16:00,44.4,22.2,29.93,NNE,28,4.0,6.3,41,0.00,,-RA,0.00,VWS V13.00,2013-03-05 17:16:00,
2013-03-05 12:22:00,43.9,21.7,29.93,ENE,69,4.5,5.4,41,0.00,,-RA,0.00,VWS V13.00,2013-03-05 17:22:00,
2013-03-05 12:27:00,44.2,22.0,29.93,ENE,67,4.0,5.4,41,0.00,,-RA,0.00,VWS V13.00,2013-03-05 17:27:00,
2013-03-05 12:32:00,44.4,22.2,29.93,North,353,2.7,5.4,41,0.00,,CLR,0.00,VWS V13.00,2013-03-05 17:32:00,
2013-03-05 12:37:00,45.3,22.4,29.93,ENE,73,2.2,5.4,40,0.00,,CLR,0.00,VWS V13.00,2013-03-05 17:37:00,
2013-03-05 12:42:00,45.3,22.4,29.93,NE,55,3.1,3.1,40,0.00,,CLR,0.00,VWS V13.00,2013-03-05 17:42:00,
2013-03-05 12:47:00,45.0,22.1,29.93,NE,55,4.0,4.9,40,0.00,,CLR,0.00,VWS V13.00,2013-03-05 17:47:00,
2013-03-05 12:52:00,44.8,22.0,29.93,ENE,71,3.6,4.9,40,0.00,,CLR,0.00,VWS V13.00,2013-03-05 17:52:00,
2013-03-05 12:57:00,44.8,22.0,29.93,ENE,71,3.6,5.4,40,0.00,,CLR,0.00,VWS V13.00,2013-03-05 17:57:00,
2013-03-05 13:02:00,44.6,21.8,29.93,East,87,3.6,4.0,40,0.00,,CLR,0.00,VWS V13.00,2013-03-05 18:02:00,
2013-03-05 13:07:00,44.6,21.8,29.93,ENE,72,4.0,4.0,40,0.00,,CLR,0.00,VWS V13.00,2013-03-05 18:07:00,
2013-03-05 13:12:00,44.6,21.8,29.93,NE,40,5.4,5.8,40,0.00,,CLR,0.00,VWS V13.00,2013-03-05 18:12:00,
2013-03-05 13:17:00,44.6,21.8,29.93,NE,50,3.1,5.8,40,0.00,,CLR,0.00,VWS V13.00,2013-03-05 18:17:00,
2013-03-05 13:22:00,44.6,21.8,29.93,East,87,2.7,3.6,40,0.00,,CLR,0.00,VWS V13.00,2013-03-05 18:22:00,
2013-03-05 13:27:00,44.6,21.8,29.93,East,88,2.7,4.0,40,0.00,,CLR,0.00,VWS V13.00,2013-03-05 18:27:00,
2013-03-05 13:32:00,44.1,21.3,29.93,East,83,3.6,4.0,40,0.00,,CLR,0.00,VWS V13.00,2013-03-05 18:32:00,
2013-03-05 13:37:00,43.5,20.8,29.93,East,86,3.1,4.0,40,0.00,,CLR,0.00,VWS V13.00,2013-03-05 18:37:00,
2013-03-05 13:43:00,44.1,21.9,29.93,ENE,71,4.0,4.0,41,0.00,,CLR,0.00,VWS V13.00,2013-03-05 18:43:00,
2013-03-05 13:48:00,44.1,21.3,29.93,East,92,2.7,4.0,40,0.00,,CLR,0.00,VWS V13.00,2013-03-05 18:48:00,
2013-03-05 13:53:00,43.9,21.1,29.93,East,82,2.7,4.0,40,0.00,,CLR,0.00,VWS V13.00,2013-03-05 18:53:00,
2013-03-05 13:58:00,44.2,21.5,29.93,East,89,3.1,4.0,40,0.00,,CLR,0.00,VWS V13.00,2013-03-05 18:58:00,
2013-03-05 14:03:00,44.2,21.5,29.93,East,81,2.7,3.6,40,0.00,,CLR,0.00,VWS V13.00,2013-03-05 19:03:00,
2013-03-05 14:08:00,44.1,21.3,29.93,East,95,0.0,3.6,40,0.00,,CLR,0.00,VWS V13.00,2013-03-05 19:08:00,
2013-03-05 14:13:00,44.6,21.8,29.93,ENE,65,3.6,4.0,40,0.00,,CLR,0.00,VWS V13.00,2013-03-05 19:13:00,
2013-03-05 14:18:00,44.6,21.8,29.93,East,83,3.1,4.0,40,0.00,,CLR,0.00,VWS V13.00,2013-03-05 19:18:00,
2013-03-05 14:23:00,45.0,22.1,29.93,East,83,2.2,3.1,40,0.00,,CLR,0.00,VWS V13.00,2013-03-05 19:23:00,
2013-03-05 14:28:00,45.5,22.6,29.93,ESE,115,3.6,3.6,40,0.00,,CLR,0.00,VWS V13.00,2013-03-05 19:28:00,
2013-03-05 14:33:00,45.5,22.6,29.93,East,85,3.1,3.6,40,0.00,,-RA,0.00,VWS V13.00,2013-03-05 19:33:00,
2013-03-05 14:38:00,45.5,22.6,29.93,East,97,2.7,4.0,40,0.00,,-RA,0.00,VWS V13.00,2013-03-05 19:38:00,
2013-03-05 14:43:00,45.3,22.4,29.93,East,97,3.1,3.6,40,0.00,,-RA,0.00,VWS V13.00,2013-03-05 19:43:00,
2013-03-05 14:48:00,44.8,21.4,29.93,ENE,74,3.6,4.0,39,0.00,,-RA,0.00,VWS V13.00,2013-03-05 19:48:00,
2013-03-05 14:53:00,45.1,22.3,29.93,ENE,70,3.6,4.0,40,0.00,,-RA,0.00,VWS V13.00,2013-03-05 19:53:00,
2013-03-05 14:58:00,45.1,22.3,29.93,ENE,70,4.0,4.0,40,0.00,,-RA,0.00,VWS V13.00,2013-03-05 19:58:00,
2013-03-05 15:03:00,44.8,22.0,29.93,ENE,70,4.0,4.0,40,0.00,,-RA,0.00,VWS V13.00,2013-03-05 20:03:00,
2013-03-05 15:08:00,45.0,22.1,29.93,ENE,70,3.6,4.0,40,0.00,,-RA,0.00,VWS V13.00,2013-03-05 20:08:00,
2013-03-05 15:13:00,45.3,22.4,29.93,ENE,70,4.0,4.5,40,0.00,,-RA,0.00,VWS V13.00,2013-03-05 20:13:00,
2013-03-05 15:19:00,45.0,22.1,29.93,ENE,70,4.0,4.9,40,0.00,,-RA,0.00,VWS V13.00,2013-03-05 20:19:00,
2013-03-05 15:24:00,44.8,22.0,29.93,ENE,70,2.7,3.1,40,0.00,,-RA,0.00,VWS V13.00,2013-03-05 20:24:00,
2013-03-05 15:29:00,44.8,22.0,29.93,ENE,70,2.7,4.0,40,0.00,,-RA,0.00,VWS V13.00,2013-03-05 20:29:00,
2013-03-05 15:34:00,45.5,22.6,29.90,ENE,70,2.2,4.0,40,0.00,,-RA,0.00,VWS V13.00,2013-03-05 20:34:00,
2013-03-05 15:39:00,45.3,22.4,29.90,ENE,70,2.2,4.0,40,0.00,,-RA,0.00,VWS V13.00,2013-03-05 20:39:00,
2013-03-05 15:44:00,44.4,21.6,29.90,ENE,70,2.7,3.6,40,0.00,,-RA,0.00,VWS V13.00,2013-03-05 20:44:00,
2013-03-05 15:49:00,44.8,22.0,29.90,ENE,70,3.6,4.0,40,0.00,,-RA,0.00,VWS V13.00,2013-03-05 20:49:00,
2013-03-05 15:54:00,44.6,21.8,29.90,East,80,0.0,4.0,40,0.00,,-RA,0.00,VWS V13.00,2013-03-05 20:54:00,
2013-03-05 15:59:00,44.6,21.8,29.90,NNE,31,2.2,4.9,40,0.00,,-RA,0.00,VWS V13.00,2013-03-05 20:59:00,
2013-03-05 16:04:00,44.6,21.8,29.90,NNE,32,0.0,4.0,40,0.00,,-RA,0.00,VWS V13.00,2013-03-05 21:04:00,
2013-03-05 16:09:00,44.6,21.8,29.90,ENE,66,2.7,4.0,40,0.00,,-RA,0.00,VWS V13.00,2013-03-05 21:09:00,
2013-03-05 16:14:00,44.2,21.5,29.90,ENE,66,2.7,4.0,40,0.00,,-RA,0.00,VWS V13.00,2013-03-05 21:14:00,
2013-03-05 16:19:00,43.9,21.1,29.90,ENE,66,3.6,4.0,40,0.00,,-RA,0.00,VWS V13.00,2013-03-05 21:19:00,
2013-03-05 16:24:00,43.5,21.4,29.90,NE,34,2.2,4.0,41,0.00,,-RA,0.00,VWS V13.00,2013-03-05 21:24:00,
2013-03-05 16:29:00,43.5,21.4,29.90,NE,34,3.1,4.0,41,0.00,,-RA,0.00,VWS V13.00,2013-03-05 21:29:00,
2013-03-05 16:34:00,43.3,20.6,29.90,NE,34,3.1,4.0,40,0.00,,-RA,0.00,VWS V13.00,2013-03-05 21:34:00,
2013-03-05 16:39:00,43.3,20.6,29.90,NNE,17,3.1,4.0,40,0.00,,-RA,0.00,VWS V13.00,2013-03-05 21:39:00,
2013-03-05 16:44:00,43.2,20.5,29.90,NE,39,3.6,3.6,40,0.00,,-RA,0.00,VWS V13.00,2013-03-05 21:44:00,
2013-03-05 16:49:00,42.6,20.6,29.90,NE,45,3.6,4.9,41,0.00,,-RA,0.00,VWS V13.00,2013-03-05 21:49:00,
2013-03-05 16:54:00,42.3,20.8,29.90,NE,48,4.0,4.9,42,0.00,,-RA,0.00,VWS V13.00,2013-03-05 21:54:00,
2013-03-05 16:59:00,41.9,20.5,29.90,NE,52,3.1,4.9,42,0.00,,-RA,0.00,VWS V13.00,2013-03-05 21:59:00,
2013-03-05 17:04:00,41.7,20.3,29.90,NNE,26,3.1,4.0,42,0.00,,-RA,0.00,VWS V13.00,2013-03-05 22:04:00,
2013-03-05 17:09:00,41.5,20.2,29.90,NE,41,3.6,4.0,42,0.00,,-RA,0.00,VWS V13.00,2013-03-05 22:09:00,
2013-03-05 17:15:00,41.0,20.2,29.90,NNE,27,3.6,4.9,43,0.00,,-RA,0.00,VWS V13.00,2013-03-05 22:15:00,
2013-03-05 17:20:00,40.8,20.1,29.90,NNE,27,0.0,4.9,43,0.00,,-RA,0.00,VWS V13.00,2013-03-05 22:20:00,
2013-03-05 17:25:00,40.5,19.7,29.90,NNE,27,0.0,0.0,43,0.00,,-RA,0.00,VWS V13.00,2013-03-05 22:25:00,
2013-03-05 17:30:00,40.3,19.6,29.90,NNE,27,0.0,0.0,43,0.00,,-RA,0.00,VWS V13.00,2013-03-05 22:30:00,
2013-03-05 17:35:00,39.9,19.2,29.90,NNE,27,0.0,0.0,43,0.00,,CLR,0.00,VWS V13.00,2013-03-05 22:35:00,
2013-03-05 17:40:00,39.6,18.9,29.90,NNE,27,0.0,0.0,43,0.00,,CLR,0.00,VWS V13.00,2013-03-05 22:40:00,
2013-03-05 17:45:00,39.2,19.1,29.90,NNE,27,0.0,0.0,44,0.00,,CLR,0.00,VWS V13.00,2013-03-05 22:45:00,
2013-03-05 17:50:00,38.8,19.3,29.93,NNE,27,0.0,0.0,45,0.00,,CLR,0.00,VWS V13.00,2013-03-05 22:50:00,
2013-03-05 17:55:00,38.8,19.3,29.93,NNE,27,2.2,3.1,45,0.00,,CLR,0.00,VWS V13.00,2013-03-05 22:55:00,
2013-03-05 18:00:00,38.5,19.5,29.93,NNE,27,0.0,3.1,46,0.00,,CLR,0.28,VWS V13.00,2013-03-05 23:00:00,
2013-03-05 18:05:00,38.1,19.2,29.93,NNE,27,0.0,2.2,46,0.00,,CLR,0.00,VWS V13.00,2013-03-05 23:05:00,
2013-03-05 18:10:00,37.8,18.9,29.93,NNE,27,0.0,2.2,46,0.00,,CLR,0.00,VWS V13.00,2013-03-05 23:10:00,
2013-03-05 18:15:00,37.6,19.2,29.93,NNE,27,0.0,2.2,47,0.00,,CLR,0.00,VWS V13.00,2013-03-05 23:15:00,
2013-03-05 18:20:00,37.4,19.0,29.93,NNE,27,0.0,2.2,47,0.00,,CLR,0.00,VWS V13.00,2013-03-05 23:20:00,
2013-03-05 18:25:00,37.0,18.7,29.93,NNE,27,0.0,0.0,47,0.00,,CLR,0.00,VWS V13.00,2013-03-05 23:25:00,
2013-03-05 18:30:00,37.0,19.2,29.93,NNE,27,0.0,0.0,48,0.00,,CLR,0.00,VWS V13.00,2013-03-05 23:30:00,
2013-03-05 18:35:00,36.9,19.0,29.93,NNE,27,0.0,0.0,48,0.00,,CLR,0.00,VWS V13.00,2013-03-05 23:35:00,
2013-03-05 18:40:00,36.5,18.7,29.93,NNE,27,0.0,0.0,48,0.00,,CLR,0.00,VWS V13.00,2013-03-05 23:40:00,
2013-03-05 18:45:00,36.1,18.8,29.93,NNE,27,0.0,0.0,49,0.00,,CLR,0.00,VWS V13.00,2013-03-05 23:45:00,
2013-03-05 18:50:00,35.8,18.5,29.93,NNE,27,0.0,0.0,49,0.00,,CLR,0.00,VWS V13.00,2013-03-05 23:50:00,
2013-03-05 18:55:00,35.2,18.5,29.93,NNE,27,0.0,0.0,50,0.00,,CLR,0.00,VWS V13.00,2013-03-05 23:55:00,
2013-03-05 19:00:00,35.1,18.3,29.93,NNE,27,0.0,0.0,50,0.00,,CLR,0.00,VWS V13.00,2013-03-06 00:00:00,
2013-03-05 19:05:00,34.5,18.3,29.93,NNE,27,0.0,0.0,51,0.00,,CLR,0.00,VWS V13.00,2013-03-06 00:05:00,
2013-03-05 19:10:00,34.5,18.7,29.93,NNE,27,0.0,0.0,52,0.00,,CLR,0.00,VWS V13.00,2013-03-06 00:10:00,
2013-03-05 19:16:00,34.0,18.2,29.93,NNE,27,0.0,0.0,52,0.00,,CLR,0.00,VWS V13.00,2013-03-06 00:16:00,
2013-03-05 19:21:00,33.4,18.6,29.93,NNE,27,0.0,0.0,54,0.00,,CLR,0.00,VWS V13.00,2013-03-06 00:21:00,
2013-03-05 19:26:00,33.3,18.9,29.93,NNE,27,0.0,0.0,55,0.00,,CLR,0.00,VWS V13.00,2013-03-06 00:26:00,
2013-03-05 19:31:00,32.7,18.4,29.93,NNE,27,0.0,0.0,55,0.00,,CLR,0.00,VWS V13.00,2013-03-06 00:31:00,
2013-03-05 19:36:00,32.4,18.4,29.93,NNE,27,0.0,0.0,56,0.00,,CLR,0.00,VWS V13.00,2013-03-06 00:36:00,
2013-03-05 19:41:00,32.2,19.1,29.93,NNE,27,0.0,0.0,58,0.00,,CLR,0.00,VWS V13.00,2013-03-06 00:41:00,
2013-03-05 19:46:00,32.5,19.4,29.93,NNE,27,0.0,0.0,58,0.00,,CLR,0.00,VWS V13.00,2013-03-06 00:46:00,
2013-03-05 19:51:00,32.7,19.6,29.93,NNE,27,0.0,0.0,58,0.00,,CLR,0.00,VWS V13.00,2013-03-06 00:51:00,
2013-03-05 19:56:00,32.7,19.6,29.93,NNE,27,0.0,0.0,58,0.00,,CLR,0.00,VWS V13.00,2013-03-06 00:56:00,
2013-03-05 20:01:00,32.9,19.8,29.93,NNE,27,2.7,2.7,58,0.00,,CLR,0.00,VWS V13.00,2013-03-06 01:01:00,
2013-03-05 20:06:00,33.3,20.1,29.93,NNE,27,2.2,3.1,58,0.00,,CLR,0.00,VWS V13.00,2013-03-06 01:06:00,
2013-03-05 20:11:00,33.6,20.4,29.93,NE,38,3.6,3.6,58,0.00,,CLR,0.00,VWS V13.00,2013-03-06 01:11:00,
2013-03-05 20:16:00,34.2,20.9,29.93,NE,49,4.0,4.0,58,0.00,,CLR,0.00,VWS V13.00,2013-03-06 01:16:00,
2013-03-05 20:21:00,34.5,21.3,29.93,ENE,59,3.6,4.0,58,0.00,,CLR,0.00,VWS V13.00,2013-03-06 01:21:00,
2013-03-05 20:26:00,34.5,21.3,29.93,ENE,59,4.0,4.0,58,0.00,,CLR,0.00,VWS V13.00,2013-03-06 01:26:00,
2013-03-05 20:31:00,34.5,21.3,29.93,ENE,59,3.1,4.0,58,0.00,,CLR,0.00,VWS V13.00,2013-03-06 01:31:00,
2013-03-05 20:36:00,34.5,21.3,29.93,ENE,59,3.6,4.0,58,0.00,,CLR,0.00,VWS V13.00,2013-03-06 01:36:00,
2013-03-05 20:41:00,34.5,21.3,29.93,ENE,59,3.6,3.6,58,0.00,,CLR,0.00,VWS V13.00,2013-03-06 01:41:00,
2013-03-05 20:46:00,34.5,21.7,29.93,ENE,59,3.6,4.0,59,0.00,,CLR,0.00,VWS V13.00,2013-03-06 01:46:00,
2013-03-05 20:51:00,34.5,21.7,29.93,ENE,59,3.1,4.0,59,0.00,,CLR,0.00,VWS V13.00,2013-03-06 01:51:00,
2013-03-05 20:56:00,34.5,21.7,29.93,ENE,59,3.1,4.0,59,0.00,,CLR,0.00,VWS V13.00,2013-03-06 01:56:00,
2013-03-05 21:01:00,34.5,21.7,29.93,ENE,59,3.1,3.1,59,0.00,,CLR,0.00,VWS V13.00,2013-03-06 02:01:00,
2013-03-05 21:06:00,34.9,21.6,29.93,ENE,59,3.1,4.0,58,0.00,,CLR,0.00,VWS V13.00,2013-03-06 02:06:00,
2013-03-05 21:11:00,35.1,21.8,29.93,ENE,59,3.1,4.0,58,0.00,,CLR,0.00,VWS V13.00,2013-03-06 02:11:00,
2013-03-05 21:17:00,35.2,22.0,29.93,ENE,59,3.1,4.0,58,0.00,,CLR,0.00,VWS V13.00,2013-03-06 02:17:00,
2013-03-05 21:22:00,35.4,21.7,29.93,ENE,59,3.1,3.6,57,0.00,,CLR,0.00,VWS V13.00,2013-03-06 02:22:00,
2013-03-05 21:27:00,35.4,21.7,29.93,ENE,59,3.6,4.5,57,0.00,,CLR,0.00,VWS V13.00,2013-03-06 02:27:00,
2013-03-05 21:32:00,35.6,21.5,29.93,ENE,59,3.6,4.5,56,0.00,,CLR,0.00,VWS V13.00,2013-03-06 02:32:00,
2013-03-05 21:37:00,35.6,21.5,29.93,ENE,59,4.0,4.5,56,0.00,,CLR,0.00,VWS V13.00,2013-03-06 02:37:00,
2013-03-05 21:42:00,35.6,21.5,29.93,ENE,59,4.0,4.0,56,0.00,,CLR,0.00,VWS V13.00,2013-03-06 02:42:00,
2013-03-05 21:47:00,35.6,21.5,29.93,ENE,59,4.0,4.0,56,0.00,,CLR,0.00,VWS V13.00,2013-03-06 02:47:00,
2013-03-05 21:52:00,35.6,21.5,29.93,ENE,74,3.1,4.9,56,0.00,,CLR,0.00,VWS V13.00,2013-03-06 02:52:00,
2013-03-05 21:57:00,35.6,21.0,29.93,East,81,3.1,4.9,55,0.00,,CLR,0.00,VWS V13.00,2013-03-06 02:57:00,
2013-03-05 22:02:00,35.4,21.3,29.93,East,90,3.1,3.6,56,0.00,,CLR,0.00,VWS V13.00,2013-03-06 03:02:00,
2013-03-05 22:07:00,35.4,20.9,29.93,East,90,2.2,3.6,55,0.00,,CLR,0.00,VWS V13.00,2013-03-06 03:07:00,
2013-03-05 22:12:00,35.1,20.5,29.93,ESE,121,2.7,4.0,55,0.00,,CLR,0.00,VWS V13.00,2013-03-06 03:12:00,
2013-03-05 22:17:00,34.9,19.9,29.93,ESE,109,2.7,5.4,54,0.00,,CLR,0.00,VWS V13.00,2013-03-06 03:17:00,
2013-03-05 22:22:00,34.7,19.8,29.93,ESE,109,2.7,3.6,54,0.00,,CLR,0.00,VWS V13.00,2013-03-06 03:22:00,
2013-03-05 22:27:00,34.5,20.0,29.93,ESE,123,2.2,6.3,55,0.00,,CLR,0.00,VWS V13.00,2013-03-06 03:27:00,
2013-03-05 22:32:00,34.5,20.0,29.93,East,79,2.7,6.3,55,0.00,,SCT060,0.00,VWS V13.00,2013-03-06 03:32:00,
2013-03-05 22:37:00,34.3,19.9,29.93,ESE,115,3.6,6.3,55,0.00,,SCT060,0.00,VWS V13.00,2013-03-06 03:37:00,
2013-03-05 22:42:00,34.3,19.9,29.93,ESE,106,2.7,3.1,55,0.00,,SCT060,0.00,VWS V13.00,2013-03-06 03:42:00,
2013-03-05 22:47:00,34.3,19.9,29.93,East,93,4.0,4.0,55,0.00,,SCT060,0.00,VWS V13.00,2013-03-06 03:47:00,
2013-03-05 22:52:00,34.5,20.5,29.93,East,88,3.6,4.0,56,0.00,,SCT060,0.00,VWS V13.00,2013-03-06 03:52:00,
2013-03-05 22:57:00,34.5,20.5,29.93,East,80,3.1,4.9,56,0.00,,SCT060,0.00,VWS V13.00,2013-03-06 03:57:00,
2013-03-05 23:02:00,34.5,20.5,29.93,East,85,3.1,4.9,56,0.00,,SCT060,0.00,VWS V13.00,2013-03-06 04:02:00,
2013-03-05 23:07:00,34.5,20.9,29.90,ENE,67,2.7,4.9,57,0.00,,SCT060,0.00,VWS V13.00,2013-03-06 04:07:00,
2013-03-05 23:12:00,34.5,20.9,29.90,ENE,67,3.1,4.9,57,0.00,,SCT060,0.00,VWS V13.00,2013-03-06 04:12:00,
2013-03-05 23:18:00,34.5,20.9,29.90,ENE,67,3.6,4.9,57,0.00,,SCT060,0.00,VWS V13.00,2013-03-06 04:18:00,
2013-03-05 23:23:00,34.5,20.9,29.90,ENE,67,2.7,4.0,57,0.00,,SCT060,0.00,VWS V13.00,2013-03-06 04:23:00,
2013-03-05 23:28:00,34.5,21.3,29.90,ENE,67,3.1,4.0,58,0.00,,SCT060,0.00,VWS V13.00,2013-03-06 04:28:00,
2013-03-05 23:33:00,34.5,21.3,29.90,ENE,67,3.6,4.0,58,0.00,,OVC060,0.00,VWS V13.00,2013-03-06 04:33:00,
2013-03-05 23:38:00,34.5,21.3,29.90,ENE,67,3.6,4.0,58,0.00,,OVC060,0.00,VWS V13.00,2013-03-06 04:38:00,
2013-03-05 23:43:00,34.7,21.5,29.90,ENE,67,3.1,4.0,58,0.00,,OVC060,0.00,VWS V13.00,2013-03-06 04:43:00,
2013-03-05 23:48:00,34.5,21.3,29.90,ENE,67,3.6,4.0,58,0.00,,OVC060,0.00,VWS V13.00,2013-03-06 04:48:00,
2013-03-05 23:53:00,34.5,21.3,29.90,ENE,73,4.0,4.0,58,0.00,,OVC060,0.00,VWS V13.00,2013-03-06 04:53:00,
2013-03-05 23:58:00,34.5,21.3,29.90,ENE,73,3.1,4.0,58,0.00,,OVC060,0.00,VWS V13.00,2013-03-06 04:58:00,